Oxford, Canada
Current Conditions -  °F | °C
As of 11:00 AM on Monday 22 Dec 2014 (Local Time) from CYQM Reporting Station
Snow Showers Snow Showers  
Wind Chill: 27°   Ceiling: 2700
Heat Index: 27°   Visibility: 15mi
Dew Point: 23°   Wind: 2mph
Humidity: 86%   Direction: NA
Pressure: 30.48"   Gusts: NA
Location:  45.73°N, 63.87°W
Report Text: CYQM 221500Z VRB02KT 15SM -SHSN FEW006 SCT016 BKN027 M03/M05 A3048 RMK SF1SC2SC4 SLP325
Loading
Personal Weather Stations






























Interactive Weather Map New forecast layout! Learn more

10-Day Weather Forecast

Advertisements
Track Severe Weather on mobile